Time;durP1;ratioP1;P1;durP2;ratioP2;P2;SDS_P1;SDS_P2;PMS_P1;PMS_P2;Temp;Humidity;BMP_temperature;BMP_pressure;BME280_temperature;BME280_humidity;BME280_pressure;Samples;Min_cycle;Max_cycle;Signal;HPM_P1;HPM_P2
2022/04/22 00:02:18;;;;;;;19.63;11.60;;;12.20;99.90;;;;;;4839601;29;20025;-79
2022/04/22 00:04:44;;;;;;;18.92;11.05;;;12.20;99.90;;;;;;4842055;29;20026;-79
2022/04/22 00:07:10;;;;;;;20.60;11.65;;;12.20;99.90;;;;;;4842034;29;20682;-77
2022/04/22 00:09:35;;;;;;;25.27;13.10;;;12.20;99.90;;;;;;4825725;29;20033;-78
2022/04/22 00:12:02;;;;;;;25.17;12.60;;;12.20;99.90;;;;;;4825688;29;20381;-78
2022/04/22 00:14:28;;;;;;;23.27;12.02;;;12.10;99.90;;;;;;4825609;29;20022;-78
2022/04/22 00:16:54;;;;;;;21.23;11.13;;;12.10;99.90;;;;;;4841908;29;20380;-79
2022/04/22 00:19:20;;;;;;;22.27;11.60;;;12.10;99.90;;;;;;4841855;29;20102;-77
2022/04/22 00:21:47;;;;;;;22.75;11.95;;;12.10;99.90;;;;;;4825463;29;20026;-80
2022/04/22 00:24:16;;;;;;;22.52;12.07;;;12.10;99.90;;;;;;4841584;29;20104;-77
2022/04/22 00:26:42;;;;;;;18.60;11.05;;;12.10;99.90;;;;;;4839643;29;20105;-77
2022/04/22 00:29:08;;;;;;;18.70;10.30;;;12.10;99.90;;;;;;4841441;29;20109;-78
2022/04/22 00:31:34;;;;;;;19.00;10.77;;;12.10;99.90;;;;;;4841509;29;20038;-79
2022/04/22 00:34:00;;;;;;;20.55;10.98;;;12.10;99.90;;;;;;4841909;29;20025;-80
2022/04/22 00:36:26;;;;;;;27.98;11.20;;;12.10;99.90;;;;;;4841390;29;20022;-76
2022/04/22 00:38:52;;;;;;;17.08;10.60;;;12.20;99.90;;;;;;4841354;29;20053;-78
2022/04/22 00:41:18;;;;;;;15.40;9.18;;;12.20;99.90;;;;;;4841497;29;20150;-77
2022/04/22 00:43:53;;;;;;;15.85;8.65;;;12.20;99.90;;;;;;4841572;29;20022;-77
2022/04/22 00:46:19;;;;;;;19.63;9.80;;;12.20;99.90;;;;;;4839257;29;20022;-77
2022/04/22 00:48:45;;;;;;;26.00;10.48;;;12.20;99.90;;;;;;4841750;29;20116;-78
2022/04/22 00:51:12;;;;;;;20.52;9.13;;;12.20;99.90;;;;;;4841539;29;20550;-79
2022/04/22 00:53:40;;;;;;;16.65;9.07;;;12.20;99.90;;;;;;4841558;29;20030;-79
2022/04/22 00:56:08;;;;;;;17.83;8.98;;;12.20;99.90;;;;;;4841187;29;20415;-77
2022/04/22 00:58:39;;;;;;;19.92;9.68;;;12.20;99.90;;;;;;4841178;29;20451;-79
2022/04/22 01:01:06;;;;;;;21.52;9.40;;;12.20;99.90;;;;;;4841817;29;20053;-78
2022/04/22 01:03:31;;;;;;;18.60;9.23;;;12.20;99.90;;;;;;4825065;29;20454;-79
2022/04/22 01:11:37;;;;;;;21.08;9.27;;;12.20;99.90;;;;;;4840797;29;20059;-77
2022/04/22 01:14:07;;;;;;;20.00;9.23;;;12.20;99.90;;;;;;4825052;29;20049;-77
2022/04/22 01:16:34;;;;;;;20.92;9.88;;;12.20;99.90;;;;;;4844512;29;20066;-78
2022/04/22 01:19:00;;;;;;;24.08;11.13;;;12.20;99.90;;;;;;4842821;29;20102;-79
2022/04/22 01:21:25;;;;;;;27.20;11.27;;;12.20;99.90;;;;;;4844929;29;20075;-77
2022/04/22 01:23:51;;;;;;;27.27;12.50;;;12.10;99.90;;;;;;4844782;29;20022;-76
2022/04/22 01:26:17;;;;;;;27.23;13.38;;;12.10;99.90;;;;;;4828359;29;20028;-77
2022/04/22 01:28:43;;;;;;;27.95;12.82;;;12.10;99.90;;;;;;4844503;29;20112;-77
2022/04/22 01:31:09;;;;;;;31.50;13.38;;;12.10;99.90;;;;;;4827794;29;20381;-79
2022/04/22 01:33:35;;;;;;;27.10;12.07;;;12.10;99.90;;;;;;4845305;29;20033;-78
2022/04/22 01:36:01;;;;;;;22.83;10.43;;;12.10;99.90;;;;;;4845812;29;20025;-77
2022/04/22 01:38:26;;;;;;;22.95;11.07;;;12.10;99.90;;;;;;4845894;29;20474;-78
2022/04/22 01:40:54;;;;;;;26.80;12.15;;;12.00;99.90;;;;;;4845962;29;20022;-77
2022/04/22 01:43:20;;;;;;;19.42;9.82;;;12.00;99.90;;;;;;4845977;29;20422;-77
2022/04/22 01:45:46;;;;;;;20.33;10.80;;;12.00;99.90;;;;;;4829221;29;20117;-78
2022/04/22 01:48:12;;;;;;;21.05;11.40;;;12.10;99.90;;;;;;4845786;29;20034;-77
2022/04/22 01:50:37;;;;;;;20.55;11.05;;;12.10;99.90;;;;;;4846193;29;20527;-78
2022/04/22 01:53:06;;;;;;;23.02;11.00;;;12.00;99.90;;;;;;4845596;29;20057;-76
2022/04/22 01:55:33;;;;;;;18.00;10.32;;;12.00;99.90;;;;;;4829074;29;20389;-78
2022/04/22 01:57:59;;;;;;;25.40;11.52;;;12.00;99.90;;;;;;4828918;29;20478;-79
2022/04/22 02:00:25;;;;;;;25.70;11.45;;;12.00;99.90;;;;;;4845705;29;20028;-79
2022/04/22 02:02:50;;;;;;;20.40;10.00;;;12.00;99.90;;;;;;4845097;29;20027;-78
2022/04/22 02:05:16;;;;;;;24.33;10.98;;;12.00;99.90;;;;;;4844517;29;20102;-78
2022/04/22 02:07:42;;;;;;;22.40;11.30;;;12.00;99.90;;;;;;4844561;29;20061;-80
2022/04/22 02:10:08;;;;;;;21.02;10.07;;;12.10;99.90;;;;;;4844202;29;20034;-78
2022/04/22 02:12:34;;;;;;;23.67;10.63;;;12.00;99.90;;;;;;4844631;29;20114;-79
2022/04/22 02:15:00;;;;;;;18.00;10.00;;;12.10;99.90;;;;;;4844475;29;20424;-78
2022/04/22 02:17:26;;;;;;;26.17;11.55;;;12.10;99.90;;;;;;4828656;29;20026;-78
2022/04/22 02:19:52;;;;;;;20.35;10.85;;;12.00;99.90;;;;;;4828773;29;20492;-79
2022/04/22 02:22:18;;;;;;;23.10;10.70;;;12.00;99.90;;;;;;4844924;29;20030;-78
2022/04/22 02:24:43;;;;;;;21.80;11.23;;;12.00;99.90;;;;;;4828453;29;20133;-78
2022/04/22 02:29:53;;;;;;;29.42;12.07;;;12.00;99.90;;;;;;4844687;29;20040;-80
2022/04/22 02:32:19;;;;;;;27.25;12.55;;;12.00;99.90;;;;;;4828424;29;20022;-78
2022/04/22 02:34:45;;;;;;;23.13;10.90;;;11.90;99.90;;;;;;4844833;29;20029;-79
2022/04/22 02:37:11;;;;;;;23.73;11.68;;;11.90;99.90;;;;;;4844611;29;20026;-79
2022/04/22 02:39:37;;;;;;;31.77;14.48;;;11.90;99.90;;;;;;4844679;29;20041;-79
2022/04/22 02:47:31;;;;;;;24.35;12.95;;;11.90;99.90;;;;;;4843908;29;20040;-78
2022/04/22 02:49:56;;;;;;;38.05;18.55;;;11.90;99.90;;;;;;4843482;29;20037;-79
2022/04/22 02:52:22;;;;;;;38.30;18.23;;;11.90;99.90;;;;;;4844644;29;20030;-77
2022/04/22 02:54:48;;;;;;;31.50;16.90;;;11.80;99.90;;;;;;4844463;29;20025;-78
2022/04/22 02:57:16;;;;;;;26.52;14.60;;;11.80;99.90;;;;;;4828036;29;20042;-78
2022/04/22 02:59:45;;;;;;;29.60;14.52;;;11.70;99.90;;;;;;4827953;29;20041;-76
2022/04/22 03:02:10;;;;;;;27.15;13.68;;;11.70;99.90;;;;;;4844432;29;20449;-78
2022/04/22 03:04:36;;;;;;;21.58;11.98;;;11.60;99.90;;;;;;4844472;29;20033;-79
2022/04/22 03:07:02;;;;;;;26.38;12.13;;;11.60;99.90;;;;;;4844273;29;20107;-78
2022/04/22 03:09:28;;;;;;;22.65;11.40;;;11.60;99.90;;;;;;4827682;29;20121;-81
2022/04/22 03:11:54;;;;;;;26.55;13.45;;;11.60;99.90;;;;;;4827610;29;20029;-80
2022/04/22 03:14:20;;;;;;;25.65;13.75;;;11.60;99.90;;;;;;4827876;29;20033;-78
2022/04/22 03:16:46;;;;;;;25.05;13.90;;;11.60;99.90;;;;;;4844143;29;20029;-77
2022/04/22 03:19:12;;;;;;;22.60;13.88;;;11.60;99.90;;;;;;4843802;29;20033;-80
2022/04/22 03:21:38;;;;;;;26.05;13.45;;;11.60;99.90;;;;;;4844141;29;20664;-78
2022/04/22 03:24:04;;;;;;;21.00;12.75;;;11.50;99.90;;;;;;4827585;29;20030;-80
2022/04/22 03:26:30;;;;;;;25.52;13.50;;;11.50;99.90;;;;;;4827609;29;20396;-80
2022/04/22 03:28:57;;;;;;;24.48;14.43;;;11.50;99.90;;;;;;4843929;29;20041;-78
2022/04/22 03:31:23;;;;;;;29.33;12.85;;;11.50;99.90;;;;;;4827280;29;20427;-77
2022/04/22 03:33:48;;;;;;;23.92;12.48;;;11.50;99.90;;;;;;4843844;29;20022;-77
2022/04/22 03:36:14;;;;;;;15.80;11.60;;;11.40;99.90;;;;;;4843811;29;20030;-79
2022/04/22 03:38:41;;;;;;;25.77;13.07;;;11.50;99.90;;;;;;4843111;29;20359;-78
2022/04/22 03:41:06;;;;;;;22.27;13.25;;;11.50;99.90;;;;;;4827294;29;20029;-79
2022/04/22 03:43:32;;;;;;;23.85;13.35;;;11.50;99.90;;;;;;4827357;29;20026;-78
2022/04/22 03:45:58;;;;;;;24.73;13.60;;;11.50;99.90;;;;;;4843280;29;20022;-77
2022/04/22 03:48:24;;;;;;;26.88;15.05;;;11.50;99.90;;;;;;4843569;29;20085;-78
2022/04/22 03:50:50;;;;;;;44.78;17.52;;;11.50;99.90;;;;;;4827038;29;20113;-79
2022/04/22 03:53:16;;;;;;;41.88;16.65;;;11.50;99.90;;;;;;4827333;29;20026;-79
2022/04/22 03:55:43;;;;;;;31.60;17.63;;;11.50;99.90;;;;;;4843523;29;20082;-79
2022/04/22 03:58:13;;;;;;;31.45;16.10;;;11.50;99.90;;;;;;4842855;29;20493;-77
2022/04/22 04:00:46;;;;;;;29.27;16.30;;;11.50;99.90;;;;;;4827061;29;20022;-77
2022/04/22 04:03:14;;;;;;;32.25;16.17;;;11.50;99.90;;;;;;4843522;29;20538;-79
2022/04/22 04:05:41;;;;;;;26.90;15.27;;;11.40;99.90;;;;;;4826883;29;20458;-79
2022/04/22 04:08:10;;;;;;;29.02;16.02;;;11.40;99.90;;;;;;4826857;29;20542;-80
2022/04/22 04:16:05;;;;;;;31.02;16.38;;;11.40;99.90;;;;;;4843182;29;20037;-78
2022/04/22 04:18:33;;;;;;;30.08;16.80;;;11.40;99.90;;;;;;4842873;29;20022;-78
2022/04/22 04:23:44;;;;;;;25.88;15.20;;;11.40;99.90;;;;;;4842943;29;20033;-78
2022/04/22 04:26:11;;;;;;;25.40;14.85;;;11.50;99.90;;;;;;4826740;29;20025;-79
2022/04/22 04:28:37;;;;;;;23.83;15.65;;;11.50;99.90;;;;;;4842714;29;20462;-78
2022/04/22 04:31:04;;;;;;;26.70;15.98;;;11.50;99.90;;;;;;4843203;29;20033;-77
2022/04/22 04:33:31;;;;;;;24.25;15.95;;;11.50;99.90;;;;;;4826030;29;20030;-78
2022/04/22 04:35:57;;;;;;;28.23;16.42;;;11.50;99.90;;;;;;4842698;29;20048;-79
2022/04/22 04:38:22;;;;;;;25.65;16.33;;;11.50;99.90;;;;;;4842985;29;20509;-79
2022/04/22 04:40:48;;;;;;;28.05;17.15;;;11.50;99.90;;;;;;4842596;29;20026;-78
2022/04/22 04:43:14;;;;;;;28.17;16.95;;;11.60;99.90;;;;;;4842762;29;20105;-78
2022/04/22 04:45:40;;;;;;;26.30;17.90;;;11.50;99.90;;;;;;4826670;29;20121;-79
2022/04/22 04:48:07;;;;;;;28.50;17.17;;;11.60;99.90;;;;;;4826405;29;20086;-79
2022/04/22 04:50:33;;;;;;;31.23;18.02;;;11.50;99.90;;;;;;4827942;29;20026;-79
2022/04/22 04:52:59;;;;;;;37.38;19.23;;;11.50;99.90;;;;;;4830242;29;20465;-77
2022/04/22 04:55:26;;;;;;;31.25;18.08;;;11.50;99.90;;;;;;4846296;29;20154;-77
2022/04/22 04:57:51;;;;;;;29.95;19.20;;;11.50;99.90;;;;;;4846524;29;20488;-77
2022/04/22 05:00:20;;;;;;;30.13;17.92;;;11.40;99.90;;;;;;4830073;29;20124;-80
2022/04/22 05:02:46;;;;;;;28.83;17.73;;;11.40;99.90;;;;;;4846766;29;20028;-78
2022/04/22 05:05:13;;;;;;;30.70;18.45;;;11.40;99.90;;;;;;4830086;29;20377;-78
2022/04/22 05:07:57;;;;;;;27.77;18.88;;;11.40;99.90;;;;;;4845976;29;20446;-78
2022/04/22 05:10:25;;;;;;;28.80;17.80;;;11.40;99.90;;;;;;4846620;29;20041;-79
2022/04/22 05:12:52;;;;;;;27.95;18.17;;;11.60;99.90;;;;;;4829726;29;20025;-79
2022/04/22 05:15:19;;;;;;;32.80;19.00;;;11.60;99.90;;;;;;4829615;29;20034;-78
2022/04/22 05:17:46;;;;;;;32.03;17.92;;;11.60;99.90;;;;;;4829720;29;20030;-80
2022/04/22 05:20:16;;;;;;;27.35;16.65;;;11.80;99.90;;;;;;4846338;29;20369;-77
2022/04/22 05:22:42;;;;;;;29.77;16.15;;;11.80;99.90;;;;;;4846003;29;20063;-79
2022/04/22 05:25:10;;;;;;;29.63;17.13;;;11.90;99.90;;;;;;4846124;29;20036;-80
2022/04/22 05:27:37;;;;;;;25.58;14.10;;;12.00;99.90;;;;;;4829577;29;20494;-81
2022/04/22 05:32:49;;;;;;;22.20;13.85;;;12.30;99.90;;;;;;4845747;29;20114;-79
2022/04/22 05:35:17;;;;;;;22.70;13.90;;;12.40;99.90;;;;;;4845674;29;20118;-78
2022/04/22 05:37:46;;;;;;;27.52;17.17;;;12.50;99.90;;;;;;4845951;29;20053;-79
2022/04/22 05:40:14;;;;;;;27.67;13.63;;;12.60;99.90;;;;;;4845100;29;20480;-78
2022/04/22 05:42:40;;;;;;;30.33;13.18;;;12.70;99.90;;;;;;4845927;29;20043;-81
2022/04/22 05:45:08;;;;;;;28.25;14.95;;;12.90;99.90;;;;;;4845436;29;20022;-79
2022/04/22 05:47:34;;;;;;;29.77;14.15;;;13.10;99.90;;;;;;4845594;29;20049;-79
2022/04/22 05:50:00;;;;;;;20.67;10.70;;;13.10;99.90;;;;;;4845278;29;20454;-78
2022/04/22 05:52:27;;;;;;;17.80;11.63;;;13.10;99.90;;;;;;4846119;29;20030;-81
2022/04/22 05:54:54;;;;;;;16.73;10.20;;;13.20;99.90;;;;;;4845393;29;20138;-79
2022/04/22 05:57:20;;;;;;;22.02;9.70;;;13.10;99.90;;;;;;4827791;29;20069;-78
2022/04/22 05:59:48;;;;;;;26.48;11.43;;;13.10;99.90;;;;;;4845338;29;20033;-79
2022/04/22 06:02:14;;;;;;;28.13;11.68;;;13.10;99.90;;;;;;4845048;29;20033;-79
2022/04/22 06:04:39;;;;;;;20.55;11.73;;;13.00;99.90;;;;;;4845185;29;20030;-80
2022/04/22 06:07:05;;;;;;;22.77;11.98;;;13.10;99.90;;;;;;4844964;29;20093;-81
2022/04/22 06:12:15;;;;;;;23.70;11.77;;;13.10;99.90;;;;;;4845003;29;20146;-77
2022/04/22 06:14:41;;;;;;;20.52;11.88;;;13.10;99.90;;;;;;4845283;29;20100;-79
2022/04/22 06:17:07;;;;;;;25.00;11.00;;;13.10;99.90;;;;;;4829067;29;20030;-79
2022/04/22 06:19:33;;;;;;;23.92;11.75;;;13.20;99.90;;;;;;4844902;29;20542;-79
2022/04/22 06:21:59;;;;;;;22.58;11.65;;;13.30;99.90;;;;;;4828300;29;20033;-79
2022/04/22 06:24:24;;;;;;;24.05;13.10;;;13.40;99.90;;;;;;4843650;29;20026;-78
2022/04/22 06:26:50;;;;;;;23.42;13.18;;;13.50;99.90;;;;;;4843781;29;20025;-77
2022/04/22 06:29:16;;;;;;;23.88;12.88;;;13.50;99.90;;;;;;4844849;29;20103;-78
2022/04/22 06:31:42;;;;;;;22.58;12.07;;;13.60;99.90;;;;;;4844737;29;20039;-79
2022/04/22 06:34:08;;;;;;;25.52;12.27;;;13.70;99.90;;;;;;4844236;29;20034;-81
2022/04/22 06:36:34;;;;;;;29.05;12.10;;;13.90;99.90;;;;;;4845050;29;20439;-79
2022/04/22 06:39:01;;;;;;;25.15;13.85;;;14.10;99.90;;;;;;4844797;29;20034;-78
2022/04/22 06:46:57;;;;;;;24.48;10.55;;;14.70;99.90;;;;;;4826042;29;20067;-79
2022/04/22 06:49:26;;;;;;;23.92;9.68;;;14.80;99.90;;;;;;4809927;29;20031;-80
2022/04/22 06:51:52;;;;;;;14.40;8.10;;;14.90;99.90;;;;;;4826113;29;20522;-80
2022/04/22 06:54:18;;;;;;;24.52;10.38;;;15.00;99.90;;;;;;4826159;29;20047;-78
2022/04/22 06:56:45;;;;;;;17.25;7.63;;;15.20;99.90;;;;;;4825883;29;20034;-79
2022/04/22 06:59:11;;;;;;;19.95;8.38;;;15.40;99.90;;;;;;4825615;29;20062;-79
2022/04/22 07:01:37;;;;;;;20.08;8.40;;;15.50;99.90;;;;;;4809742;29;20022;-79
2022/04/22 07:04:04;;;;;;;23.08;8.05;;;15.70;99.90;;;;;;4825917;29;20466;-81
2022/04/22 07:06:30;;;;;;;19.02;8.52;;;15.80;99.90;;;;;;4826122;29;20026;-78
2022/04/22 07:08:56;;;;;;;18.77;8.60;;;15.90;99.90;;;;;;4825914;29;20069;-80
2022/04/22 07:11:29;;;;;;;23.52;8.57;;;16.00;99.90;;;;;;4809461;29;20026;-81
2022/04/22 07:13:59;;;;;;;19.75;7.60;;;16.10;99.90;;;;;;4825055;29;20034;-76
2022/04/22 07:16:25;;;;;;;17.95;6.55;;;16.30;99.90;;;;;;4809718;29;20030;-79
2022/04/22 07:18:55;;;;;;;25.00;9.50;;;16.50;99.90;;;;;;4825603;29;20026;-77
2022/04/22 07:21:21;;;;;;;23.75;9.73;;;16.50;99.90;;;;;;4809544;29;20036;-79
2022/04/22 07:23:47;;;;;;;16.98;7.03;;;16.70;99.90;;;;;;4825513;29;20447;-79
2022/04/22 07:26:17;;;;;;;11.88;6.50;;;16.90;99.90;;;;;;4825040;29;20495;-77
2022/04/22 07:28:46;;;;;;;24.00;7.53;;;16.90;99.90;;;;;;4824061;29;20030;-79
2022/04/22 07:31:14;;;;;;;22.20;7.45;;;17.00;99.90;;;;;;4808875;29;20033;-77
2022/04/22 07:33:40;;;;;;;18.65;9.73;;;17.20;99.90;;;;;;4824940;29;20026;-78
2022/04/22 07:36:06;;;;;;;25.42;9.45;;;17.20;99.90;;;;;;4825528;29;20375;-77
2022/04/22 07:38:32;;;;;;;22.05;8.90;;;17.40;99.90;;;;;;4809163;29;20082;-76
2022/04/22 07:40:58;;;;;;;22.63;9.32;;;17.70;99.90;;;;;;4812086;29;20116;-78
2022/04/22 07:48:55;;;;;;;17.95;8.15;;;17.90;99.90;;;;;;4840632;29;20073;-76
2022/04/22 07:51:25;;;;;;;26.60;8.98;;;18.00;99.90;;;;;;4843237;29;20026;-78
2022/04/22 07:53:51;;;;;;;22.48;9.60;;;18.20;99.90;;;;;;4840774;29;20049;-78
2022/04/22 07:56:17;;;;;;;15.75;6.43;;;18.30;99.90;;;;;;4843314;29;20074;-77
2022/04/22 07:58:43;;;;;;;16.88;7.80;;;18.30;99.90;;;;;;4843792;29;20088;-77
2022/04/22 08:01:09;;;;;;;18.58;6.72;;;18.50;99.90;;;;;;4843337;29;20057;-78
2022/04/22 08:03:36;;;;;;;20.23;7.90;;;18.70;99.90;;;;;;4843184;29;20033;-77
2022/04/22 08:06:10;;;;;;;19.20;7.82;;;18.90;99.90;;;;;;4843213;29;20028;-77
2022/04/22 08:08:36;;;;;;;18.67;7.25;;;19.20;99.90;;;;;;4843598;29;20463;-79
2022/04/22 08:11:02;;;;;;;15.77;6.95;;;19.50;99.90;;;;;;4843287;29;20029;-77
2022/04/22 08:13:28;;;;;;;14.50;7.50;;;19.60;97.40;;;;;;4843250;29;20454;-77
2022/04/22 08:15:53;;;;;;;15.75;6.43;;;19.80;98.00;;;;;;4843354;29;20159;-75
2022/04/22 08:18:19;;;;;;;22.58;9.80;;;19.80;92.20;;;;;;4843215;29;20030;-77
2022/04/22 08:20:45;;;;;;;20.77;7.85;;;19.70;92.20;;;;;;4843229;29;20032;-78
2022/04/22 08:23:11;;;;;;;15.65;7.10;;;19.90;93.20;;;;;;4843293;29;20026;-78
2022/04/22 08:25:37;;;;;;;17.05;6.95;;;20.00;92.50;;;;;;4843017;29;20110;-75
2022/04/22 08:28:03;;;;;;;18.27;6.40;;;20.20;92.10;;;;;;4843409;29;20022;-78
2022/04/22 08:30:30;;;;;;;17.52;5.88;;;20.20;90.10;;;;;;4826878;29;20034;-76
2022/04/22 08:32:56;;;;;;;15.90;6.40;;;20.10;89.20;;;;;;4827050;29;20430;-74
2022/04/22 08:35:22;;;;;;;14.23;5.57;;;19.90;90.80;;;;;;4826765;29;20117;-76
2022/04/22 08:37:48;;;;;;;14.00;6.00;;;20.10;90.20;;;;;;4843020;29;20026;-78
2022/04/22 08:40:14;;;;;;;14.98;5.75;;;20.20;90.40;;;;;;4826996;29;20033;-79
2022/04/22 08:42:43;;;;;;;15.48;6.22;;;20.30;90.00;;;;;;4842753;29;20033;-78
2022/04/22 08:45:10;;;;;;;13.68;6.65;;;20.40;87.50;;;;;;4843176;29;20497;-76
2022/04/22 08:50:29;;;;;;;11.00;6.22;;;20.90;85.90;;;;;;4842960;29;20060;-77
2022/04/22 08:52:57;;;;;;;14.93;6.22;;;;;;;;;;4826443;29;20033;-76
2022/04/22 08:55:25;;;;;;;14.85;6.07;;;21.30;77.70;;;;;;4826627;29;20034;-76
2022/04/22 08:57:53;;;;;;;19.40;7.05;;;21.40;79.00;;;;;;4826526;29;20462;-78
2022/04/22 09:00:22;;;;;;;17.38;6.70;;;21.40;77.30;;;;;;4842508;29;20068;-76
2022/04/22 09:02:54;;;;;;;17.65;5.90;;;21.20;75.30;;;;;;4843181;29;20029;-79
2022/04/22 09:05:19;;;;;;;18.45;6.05;;;21.40;73.90;;;;;;4826649;29;20026;-77
2022/04/22 09:07:46;;;;;;;15.30;7.00;;;21.90;74.40;;;;;;4842782;29;20033;-80
2022/04/22 09:10:12;;;;;;;19.40;8.73;;;21.90;72.30;;;;;;4842689;29;20034;-78
2022/04/22 09:12:48;;;;;;;15.90;7.57;;;22.10;72.80;;;;;;4826455;29;20029;-77
2022/04/22 09:15:15;;;;;;;18.00;8.93;;;;;;;;;;4842677;29;20022;-81
2022/04/22 09:17:41;;;;;;;13.32;6.43;;;;;;;;;;4842790;29;20030;-78
2022/04/22 09:20:12;;;;;;;18.45;6.85;;;;;;;;;;4842577;29;20117;-78
2022/04/22 09:22:38;;;;;;;;;;;;;;;;;;4843634;29;20026;-79
2022/04/22 09:25:05;;;;;;;13.57;6.60;;;;;;;;;;4826102;29;19904;-78
2022/04/22 09:27:41;;;;;;;17.88;9.18;;;;;;;;;;4826173;29;20026;-75
2022/04/22 09:30:09;;;;;;;16.10;7.53;;;;;;;;;;4842630;29;20034;-79
2022/04/22 09:32:37;;;;;;;19.00;7.28;;;;;;;;;;4842805;29;20018;-76
2022/04/22 09:35:10;;;;;;;17.58;7.45;;;;;;;;;;4842527;29;20073;-77
2022/04/22 09:43:23;;;;;;;11.55;7.22;;;;;;;;;;4846105;29;20509;-76
2022/04/22 09:45:51;;;;;;;18.05;8.02;;;;;;;;;;4845566;29;20369;-76
2022/04/22 09:48:19;;;;;;;20.27;7.88;;;;;;;;;;4846014;29;20030;-75
2022/04/22 09:50:52;;;;;;;15.02;7.05;;;;;;;;;;4829398;29;20089;-80
2022/04/22 09:53:19;;;;;;;19.63;7.43;;;;;;;;;;4829351;29;20033;-81
2022/04/22 09:55:49;;;;;;;28.02;8.80;;;;;;;;;;4845685;29;20026;-79
2022/04/22 09:58:26;;;;;;;17.17;7.65;;;;;;;;;;4845831;29;20053;-81
2022/04/22 10:01:00;;;;;;;16.88;6.25;;;;;;;;;;4828862;29;20053;-78
2022/04/22 10:03:34;;;;;;;17.58;7.28;;;;;;;;;;4829143;29;20414;-78
2022/04/22 10:06:01;;;;;;;19.80;6.25;;;;;;;;;;4845331;29;20391;-83
2022/04/22 10:08:30;;;;;;;18.83;6.60;;;;;;;;;;4829201;29;20026;-77
2022/04/22 10:11:00;;;;;;;14.95;6.15;;;;;;;;;;4845393;29;20018;-78
2022/04/22 10:13:33;;;;;;;15.43;5.72;;;;;;;;;;4845164;29;20079;-76
2022/04/22 10:16:00;;;;;;;12.77;6.35;;;;;;;;;;4845320;29;20018;-79
2022/04/22 10:18:26;;;;;;;24.58;6.88;;;;;;;;;;4845543;29;20343;-80
2022/04/22 10:20:53;;;;;;;13.13;6.70;;;;;;;;;;4845548;29;20026;-77
2022/04/22 10:23:20;;;;;;;16.38;7.90;;;;;;;;;;4845220;29;20022;-77
2022/04/22 10:25:47;;;;;;;19.30;7.53;;;;;;;;;;4845532;29;20038;-77
2022/04/22 10:28:14;;;;;;;15.88;6.85;;;;;;;;;;4845209;29;20017;-81
2022/04/22 10:30:42;;;;;;;23.52;7.68;;;;;;;;;;4828452;29;20113;-80
2022/04/22 10:33:11;;;;;;;15.23;7.43;;;;;;;;;;4828612;29;20022;-78
2022/04/22 10:35:41;;;;;;;15.45;7.68;;;;;;;;;;4845168;29;20014;-80
2022/04/22 10:38:27;;;;;;;21.08;7.93;;;;;;;;;;4845192;29;20018;-81
2022/04/22 10:40:53;;;;;;;14.63;6.93;;;;;;;;;;4828471;29;20492;-78
2022/04/22 10:43:20;;;;;;;16.15;6.72;;;;;;;;;;4844751;29;20408;-78
2022/04/22 10:48:32;;;;;;;11.50;6.45;;;;;;;;;;4843928;29;20049;-77
2022/04/22 10:50:59;;;;;;;19.70;7.70;;;;;;;;;;4828205;29;20018;-80
2022/04/22 10:53:27;;;;;;;21.60;6.55;;;;;;;;;;4828433;29;20122;-79
2022/04/22 10:55:53;;;;;;;19.27;7.28;;;;;;;;;;4844429;29;20406;-80
2022/04/22 10:58:21;;;;;;;14.93;6.78;;;;;;;;;;4844652;29;20049;-79
2022/04/22 11:00:54;;;;;;;15.95;7.53;;;;;;;;;;4828228;29;20116;-79
2022/04/22 11:03:31;;;;;;;19.13;7.03;;;;;;;;;;4845110;29;20358;-79
2022/04/22 11:06:01;;;;;;;29.90;8.05;;;;;;;;;;4844470;29;20030;-79
2022/04/22 11:08:37;;;;;;;20.00;6.90;;;;;;;;;;4827899;29;20018;-80
2022/04/22 11:11:05;;;;;;;12.25;6.43;;;;;;;;;;4812990;29;20045;-77
2022/04/22 11:13:40;;;;;;;13.43;6.30;;;;;;;;;;4844391;29;20065;-77
2022/04/22 11:16:07;;;;;;;18.63;6.97;;;;;;;;;;4844336;29;20014;-80
2022/04/22 11:18:33;;;;;;;24.23;7.85;;;;;;;;;;4827942;29;20467;-76
2022/04/22 11:21:02;;;;;;;19.50;6.75;;;;;;;;;;4844144;29;20041;-77
2022/04/22 11:23:36;;;;;;;20.58;8.65;;;;;;;;;;4844258;29;20014;-78
2022/04/22 11:26:02;;;;;;;21.05;7.03;;;;;;;;;;4844076;29;20025;-77
2022/04/22 11:28:32;;;;;;;12.98;6.45;;;;;;;;;;4844200;29;20029;-79
2022/04/22 11:31:02;;;;;;;28.58;7.57;;;;;;;;;;4843883;29;20026;-78
2022/04/22 11:33:34;;;;;;;17.35;7.05;;;;;;;;;;4843947;29;20021;-78
2022/04/22 11:36:04;;;;;;;16.83;6.90;;;;;;;;;;4843665;29;20026;-76
2022/04/22 11:38:31;;;;;;;22.08;7.13;;;;;;;;;;4844294;29;20044;-76
2022/04/22 11:40:57;;;;;;;19.90;8.00;;;;;;;;;;4843742;29;20026;-77
2022/04/22 11:43:24;;;;;;;20.13;7.18;;;;;;;;;;4843588;29;20427;-77
2022/04/22 11:45:50;;;;;;;13.63;6.70;;;;;;;;;;4827515;29;20097;-76
2022/04/22 11:48:20;;;;;;;16.02;6.97;;;;;;;;;;4843812;29;20049;-78
2022/04/22 11:50:47;;;;;;;14.35;6.38;;;;;;;;;;4827306;29;20469;-76
2022/04/22 11:53:14;;;;;;;22.83;7.40;;;;;;;;;;4843501;29;20022;-77
2022/04/22 11:55:42;;;;;;;16.70;6.45;;;;;;;;;;4843684;29;20021;-76
2022/04/22 11:58:11;;;;;;;20.35;6.32;;;;;;;;;;4843541;29;20050;-76
2022/04/22 12:06:15;;;;;;;21.75;7.20;;;;;;;;;;4843602;29;20040;-78
2022/04/22 12:08:54;;;;;;;13.98;7.15;;;;;;;;;;4843305;29;20033;-75
2022/04/22 12:11:20;;;;;;;13.20;6.32;;;;;;;;;;4827177;29;20022;-76
2022/04/22 12:13:47;;;;;;;16.38;6.53;;;;;;;;;;4843830;29;20480;-74
2022/04/22 12:16:20;;;;;;;24.05;6.93;;;;;;;;;;4843307;29;20442;-76
2022/04/22 12:18:48;;;;;;;21.02;6.65;;;;;;;;;;4843356;29;20033;-81
2022/04/22 12:21:14;;;;;;;15.82;6.75;;;;;;;;;;4843508;29;20022;-75
2022/04/22 12:23:43;;;;;;;13.43;7.30;;;;;;;;;;4843100;29;20033;-76
2022/04/22 12:26:15;;;;;;;15.98;8.27;;;;;;;;;;4842848;29;20037;-75
2022/04/22 12:29:11;;;;;;;17.70;8.35;;;;;;;;;;4843117;29;20034;-80
2022/04/22 12:31:42;;;;;;;22.65;7.28;;;;;;;;;;4830335;29;20033;-74
2022/04/22 12:34:12;;;;;;;15.90;7.60;;;;;;;;;;4826232;29;20038;-76
2022/04/22 12:36:40;;;;;;;15.40;7.18;;;;;;;;;;4826097;29;20108;-75
2022/04/22 12:39:10;;;;;;;21.67;7.47;;;;;;;;;;4842265;29;20026;-77
2022/04/22 12:41:45;;;;;;;18.70;7.40;;;;;;;;;;4842305;29;20051;-74
2022/04/22 12:44:13;;;;;;;25.77;9.25;;;;;;;;;;4825782;29;20137;-76
2022/04/22 12:52:12;;;;;;;20.58;8.27;;;;;;;;;;4841998;29;20041;-77
2022/04/22 12:54:38;;;;;;;26.92;7.28;;;;;;;;;;4842063;29;20068;-77
2022/04/22 12:57:08;;;;;;;15.73;7.85;;;;;;;;;;4841866;29;20021;-74
2022/04/22 12:59:44;;;;;;;18.17;7.15;;;;;;;;;;4842454;29;20022;-77
2022/04/22 13:02:10;;;;;;;16.50;8.02;;;;;;;;;;4824868;29;20018;-76
2022/04/22 13:04:50;;;;;;;26.10;6.95;;;24.60;46.80;;;;;;4841967;29;20030;-80
2022/04/22 13:07:16;;;;;;;11.88;6.28;;;24.20;47.10;;;;;;4823800;29;20079;-75
2022/04/22 13:09:42;;;;;;;29.10;9.02;;;24.00;47.60;;;;;;4821471;29;20044;-75
2022/04/22 13:12:08;;;;;;;14.50;4.75;;;23.60;52.40;;;;;;4844040;29;20038;-75
2022/04/22 13:14:34;;;;;;;14.55;7.50;;;22.80;55.20;;;;;;4845614;29;20366;-74
2022/04/22 13:17:01;;;;;;;26.90;8.73;;;22.50;54.20;;;;;;4845883;29;20030;-77
2022/04/22 13:19:27;;;;;;;16.38;7.60;;;22.30;54.70;;;;;;4829021;29;20026;-78
2022/04/22 13:21:53;;;;;;;22.63;7.60;;;22.30;54.80;;;;;;4845721;29;20378;-78
2022/04/22 13:24:18;;;;;;;17.00;7.35;;;22.30;53.20;;;;;;4845341;29;20037;-78
2022/04/22 13:26:44;;;;;;;13.90;7.85;;;22.40;52.90;;;;;;4844913;29;20022;-76
2022/04/22 13:29:10;;;;;;;17.30;6.50;;;22.50;53.70;;;;;;4844972;29;20071;-77
2022/04/22 13:31:36;;;;;;;16.73;6.47;;;22.60;52.30;;;;;;4845169;29;20052;-76
2022/04/22 13:34:03;;;;;;;17.20;5.88;;;22.70;52.40;;;;;;4845211;29;20030;-77
2022/04/22 13:36:30;;;;;;;17.92;6.47;;;22.70;55.00;;;;;;4827483;29;20113;-76
2022/04/22 13:38:56;;;;;;;27.48;8.68;;;22.40;58.60;;;;;;4844113;29;20065;-77
2022/04/22 13:41:22;;;;;;;16.27;7.13;;;22.20;60.10;;;;;;4844925;29;20118;-79
2022/04/22 13:43:47;;;;;;;21.33;7.65;;;22.10;60.20;;;;;;4845107;29;20075;-77
2022/04/22 13:54:25;;;;;;;15.20;6.53;;;21.90;57.40;;;;;;4841960;29;20435;-76
2022/04/22 13:56:51;;;;;;;19.90;6.10;;;21.80;58.40;;;;;;4842802;29;20022;-76
2022/04/22 13:59:17;;;;;;;21.90;7.10;;;21.70;58.20;;;;;;4828229;29;20057;-78
2022/04/22 14:01:43;;;;;;;26.80;10.50;;;21.60;59.70;;;;;;4827047;29;20070;-79
2022/04/22 14:04:08;;;;;;;16.83;6.68;;;21.60;61.20;;;;;;4844286;29;20026;-78
2022/04/22 14:06:34;;;;;;;29.10;8.35;;;21.50;62.80;;;;;;4843226;29;20500;-78
2022/04/22 14:09:01;;;;;;;52.38;13.40;;;21.20;67.20;;;;;;4827430;29;20425;-77
2022/04/22 14:11:30;;;;;;;27.60;11.10;;;21.00;81.10;;;;;;4843690;29;20022;-79